Flight Track Log - Related Links

Times and Time Zones

All times are in EST time to prevent confusion due to time zone crossing. See the UCA3596 flight status page for this flight to view local times or setup timezone preferences in your user account.

Time Position Orientation Groundspeed Altitude Reporting Facility
EST Latitude Longitude Course Direction KTS MPH feet Rate Location/Type
Sat 03:23:53 PM 42.1775 -75.9814 212° Southwest 257 296 3,100  Level New York Center
Sat 03:24:54 PM 42.1406 -76.0147 214° Southwest 157 181 4,200 1,050 Climbing New York Center
Sat 03:25:53 PM 42.1058 -76.0511 218° Southwest 162 186 5,200 1,059 Climbing New York Center
Sat 03:26:53 PM 42.0644 -76.0897 215° Southwest 167 192 6,300 1,050 Climbing New York Center
Sat 03:27:53 PM 42.0233 -76.1283 215° Southwest 179 206 7,300 1,000 Climbing New York Center
Sat 03:28:53 PM 41.9797 -76.1694 215° Southwest 184 212 8,300 1,000 Climbing New York Center
Sat 03:29:00 PM 41.9252 -76.1145 212° Southwest  Level Estimated
Sat 03:29:53 PM 41.9428 -76.2053 216° Southwest 184 212 9,300  Level New York Center
Sat 03:30:53 PM 41.8989 -76.2492 217° Southwest 184 212 10,500 1,300 Climbing New York Center
Sat 03:31:53 PM 41.8578 -76.2847 213° Southwest 184 212 11,900 1,200 Climbing New York Center
Sat 03:32:53 PM 41.8208 -76.3206 216° Southwest 179 206 12,900 900 Climbing New York Center
Sat 03:33:53 PM 41.7858 -76.3539 215° Southwest 179 206 13,700 550 Climbing New York Center
Sat 03:34:53 PM 41.7403 -76.3944 214° Southwest 185 213 14,000 150 Climbing New York Center
Sat 03:35:53 PM 41.6856 -76.4483 216° Southwest 212 244 14,000  Level New York Center
Sat 03:36:53 PM 41.6333 -76.4939 213° Southwest 224 258 14,000  Level New York Center
Sat 03:37:53 PM 41.5831 -76.5422 216° Southwest 229 264 14,000  Level New York Center
Sat 03:38:53 PM 41.5394 -76.5856 217° Southwest 229 264 14,000  Level New York Center
Sat 03:39:54 PM 41.4828 -76.6361 214° Southwest 229 264 14,000  Level New York Center
Sat 03:40:53 PM 41.4325 -76.6842 216° Southwest 229 264 14,000  Level New York Center
Sat 03:41:53 PM 41.3908 -76.7275 218° Southwest 229 264 14,000  Level New York Center
Sat 03:42:53 PM 41.3425 -76.7731 215° Southwest 229 264 14,000  Level New York Center
Sat 03:43:53 PM 41.2836 -76.7872 190° South 219 252 14,000  Level New York Center
Sat 03:44:53 PM 41.2225 -76.7983 188° South 219 252 14,000  Level New York Center
Sat 03:45:53 PM 41.1614 -76.8122 190° South 224 258 14,000  Level New York Center
Sat 03:46:53 PM 41.1025 -76.8261 190° South 224 258 14,000  Level New York Center
Sat 03:47:53 PM 41.0414 -76.8372 188° South 224 258 14,000  Level New York Center
Sat 03:48:53 PM 40.9783 -76.8481 187° South 224 258 14,000  Level New York Center
Sat 03:49:53 PM 40.9194 -76.8594 188° South 224 258 14,000  Level New York Center
Sat 03:50:53 PM 40.8519 -76.8725 188° South 218 251 14,000  Level New York Center
Sat 03:51:54 PM 40.7994 -76.8842 190° South 223 257 14,000  Level New York Center
Sat 03:52:53 PM 40.7317 -76.9028 192° South 223 257 14,000 -50 Level New York Center
Sat 03:53:53 PM 40.6767 -76.9197 193° South 224 258 13,900  Descending New York Center
Sat 03:54:53 PM 40.6089 -76.9411 193° South 224 258 14,000 50 Climbing New York Center
Sat 03:55:54 PM 40.5536 -76.9581 193° South 224 258 14,000  Level New York Center
Sat 03:56:54 PM 40.4881 -76.9794 194° South 224 258 14,000  Level New York Center
Sat 03:57:53 PM 40.4331 -76.9936 191° South 224 258 14,000  Level New York Center
Sat 03:58:53 PM 40.3672 -77.0150 194° South 224 258 14,000  Level New York Center
Sat 03:59:53 PM 40.3056 -77.0367 195° South 224 258 14,000  Level New York Center
Sat 04:00:53 PM 40.2444 -77.0528 191° South 224 258 14,000  Level New York Center
Sat 04:02:44 PM 40.1333 -77.0833 191° South 228 262 14,000 -140 Level Potomac TRACON
Sat 04:03:44 PM 40.0667 -77.1000 191° South 224 258 13,600 -633 Descending Potomac TRACON
Sat 04:05:44 PM 39.9333 -77.1333 191° South 247 284 12,100 -733 Descending Potomac TRACON
Sat 04:06:44 PM 39.8667 -77.1167 169° South 248 285 11,400 -550 Descending Potomac TRACON
Sat 04:07:44 PM 39.8000 -77.1167 180° South 249 287 11,000 -200 Descending Potomac TRACON
Sat 04:08:44 PM 39.7500 -77.1000 166° South 237 273 11,000 -250 Level Potomac TRACON
Sat 04:09:44 PM 39.7000 -77.1667 226° Southwest 226 260 10,500 -496 Descending Potomac TRACON
Sat 04:10:45 PM 39.6667 -77.2500 243° Southwest 223 257 10,000 -496 Descending Potomac TRACON
Sat 04:11:45 PM 39.6333 -77.3000 229° Southwest 213 245 9,500 -600 Descending Potomac TRACON
Sat 04:13:45 PM 39.5333 -77.3833 213° Southwest 207 238 8,200 -696 Descending Potomac TRACON
Sat 04:14:46 PM 39.4833 -77.4167 207° Southwest 208 239 7,400 -595 Descending Potomac TRACON
Sat 04:15:46 PM 39.4333 -77.4333 194° South 176 203 7,000 -850 Descending Potomac TRACON
Sat 04:16:46 PM 39.3833 -77.4500 194° South 211 243 5,700 -992 Descending Potomac TRACON
Sat 04:17:47 PM 39.3333 -77.4500 180° South 202 232 5,000 -365 Descending Potomac TRACON
Sat 04:18:41 PM 39.2833 -77.4500 180° South 197 227 5,000  Level Potomac TRACON
Sat 04:19:41 PM 39.2333 -77.4500 180° South 195 224 5,000 -400 Level Potomac TRACON
Sat 04:20:41 PM 39.1667 -77.4500 180° South 199 229 4,200 -945 Descending Potomac TRACON
Sat 04:21:48 PM 39.1167 -77.4500 180° South 182 209 3,000 -992 Descending Potomac TRACON
Sat 04:22:42 PM 39.0667 -77.4500 180° South 160 184 2,200 -800 Descending Potomac TRACON
Sat 04:23:48 PM 39.0167 -77.4667 195° South 147 169 1,400 -667 Descending Potomac TRACON
Sat 04:24:48 PM 39.0000 -77.4667 180° South 98 113 800 -600 Descending Potomac TRACON
Sat 04:26:00 PM 38.9474 -77.4599 169° South  Level Estimated
Sat 04:33:00 PM 38.9474 -77.4599 349° North  Level Estimated
Sat 04:34:00 PM 38.9474 -77.4599 349° North  Level Estimated

Login

Don't have an account? Register now (free) for customized features, flight alerts, and more!